createdAt,value
2023-02-03T00:02:04.229Z,91.90
2023-02-03T00:05:07.957Z,92.10
2023-02-03T00:08:13.133Z,92.00
2023-02-03T00:11:15.521Z,92.00
2023-02-03T00:14:17.631Z,91.90
2023-02-03T00:17:19.971Z,92.00
2023-02-03T00:20:22.289Z,92.10
2023-02-03T00:23:27.410Z,92.10
2023-02-03T00:26:29.878Z,92.20
2023-02-03T00:29:32.017Z,92.00
2023-02-03T00:32:36.494Z,92.30
2023-02-03T00:35:42.565Z,92.30
2023-02-03T00:38:44.588Z,92.40
2023-02-03T00:41:47.668Z,92.50
2023-02-03T00:44:49.688Z,92.50
2023-02-03T00:47:52.812Z,92.80
2023-02-03T00:50:54.961Z,92.80
2023-02-03T00:53:57.014Z,92.90
2023-02-03T00:56:59.035Z,92.90
2023-02-03T01:00:01.105Z,92.90
2023-02-03T01:03:03.499Z,92.80
2023-02-03T01:06:24.867Z,92.80
2023-02-03T01:09:27.847Z,93.00
2023-02-03T01:12:31.221Z,93.00
2023-02-03T01:15:33.309Z,93.00
2023-02-03T01:18:35.934Z,92.90
2023-02-03T01:21:38.953Z,93.10
2023-02-03T01:24:41.052Z,93.00
2023-02-03T01:27:43.125Z,93.10
2023-02-03T01:30:45.450Z,92.90
2023-02-03T01:33:48.841Z,92.70
2023-02-03T01:36:50.878Z,92.80
2023-02-03T01:39:53.786Z,92.80
2023-02-03T01:42:55.822Z,93.00
2023-02-03T01:45:59.877Z,93.40
2023-02-03T01:49:25.042Z,93.00
2023-02-03T01:52:28.236Z,92.90
2023-02-03T01:55:45.024Z,92.80
2023-02-03T01:58:49.555Z,93.00
2023-02-03T02:01:53.109Z,93.10
2023-02-03T02:05:14.639Z,93.00
2023-02-03T02:08:18.728Z,92.90
2023-02-03T02:11:24.294Z,92.90
2023-02-03T02:14:26.319Z,92.90
2023-02-03T02:17:54.350Z,93.10
2023-02-03T02:21:02.151Z,92.90
2023-02-03T02:24:28.987Z,92.90
2023-02-03T02:27:55.617Z,93.20
2023-02-03T02:31:14.158Z,93.10
2023-02-03T02:34:52.101Z,93.00
2023-02-03T02:38:03.136Z,93.00
2023-02-03T02:41:28.484Z,93.10
2023-02-03T02:44:37.812Z,93.20
2023-02-03T02:47:40.417Z,93.20
2023-02-03T02:50:48.156Z,93.40
2023-02-03T02:53:56.124Z,93.40
2023-02-03T02:57:02.036Z,93.50
2023-02-03T03:00:07.021Z,93.70
2023-02-03T03:03:21.591Z,94.60
2023-02-03T03:06:32.309Z,95.60
2023-02-03T03:09:53.261Z,95.60
2023-02-03T03:13:01.794Z,96.00
2023-02-03T03:16:08.805Z,96.10
2023-02-03T03:19:16.704Z,96.40
2023-02-03T03:22:23.100Z,96.40
2023-02-03T03:25:37.986Z,96.60
2023-02-03T03:28:48.863Z,96.70
2023-02-03T03:31:51.309Z,96.80
2023-02-03T03:34:53.965Z,96.90
2023-02-03T03:38:09.825Z,96.80
2023-02-03T03:41:20.936Z,96.70
2023-02-03T03:44:28.155Z,96.70
2023-02-03T03:47:48.304Z,96.50
2023-02-03T03:50:56.308Z,97.00
2023-02-03T03:54:04.020Z,97.40
2023-02-03T03:57:15.719Z,97.40
2023-02-03T04:00:20.668Z,97.20
2023-02-03T04:03:27.938Z,97.20
2023-02-03T04:06:30.013Z,97.00
2023-02-03T04:09:32.585Z,96.90
2023-02-03T04:12:34.719Z,96.90
2023-02-03T04:15:37.212Z,96.50
2023-02-03T04:18:39.176Z,96.40
2023-02-03T04:21:41.382Z,96.20
2023-02-03T04:24:43.330Z,96.00
2023-02-03T04:27:45.404Z,95.90
2023-02-03T04:30:47.436Z,96.00
2023-02-03T04:33:49.581Z,95.90
2023-02-03T04:36:51.624Z,95.70
2023-02-03T04:39:55.497Z,95.70
2023-02-03T04:42:58.167Z,95.90
2023-02-03T04:46:01.326Z,95.70
2023-02-03T04:49:05.620Z,95.60
2023-02-03T04:52:07.967Z,95.80
2023-02-03T04:55:10.029Z,95.70
2023-02-03T04:58:12.072Z,95.80
2023-02-03T05:01:14.188Z,95.70
2023-02-03T05:04:16.459Z,95.70
2023-02-03T05:07:18.458Z,95.50
2023-02-03T05:10:20.499Z,95.20
2023-02-03T05:13:22.574Z,95.40
2023-02-03T05:16:25.142Z,95.00
2023-02-03T05:19:27.231Z,94.90
2023-02-03T05:22:29.526Z,94.70
2023-02-03T05:25:31.602Z,94.80
2023-02-03T05:28:33.843Z,94.70
2023-02-03T05:31:36.842Z,94.60
2023-02-03T05:34:41.270Z,94.60
2023-02-03T05:37:45.718Z,94.60
2023-02-03T05:41:10.191Z,94.60
2023-02-03T05:44:12.352Z,94.90
2023-02-03T05:47:14.687Z,94.60
2023-02-03T05:50:16.790Z,94.70
2023-02-03T05:53:18.897Z,94.60
2023-02-03T05:56:20.923Z,94.60
2023-02-03T05:59:22.932Z,94.50
2023-02-03T06:02:24.940Z,94.40
2023-02-03T06:05:27.137Z,94.40
2023-02-03T06:08:29.128Z,94.50
2023-02-03T06:11:32.174Z,94.40
2023-02-03T06:14:34.213Z,94.50
2023-02-03T06:17:36.794Z,94.40
2023-02-03T06:20:38.937Z,94.50
2023-02-03T06:23:49.163Z,94.20
2023-02-03T06:26:52.197Z,94.20
2023-02-03T06:29:54.391Z,94.20
2023-02-03T06:32:56.576Z,94.20
2023-02-03T06:35:58.803Z,94.20
2023-02-03T06:39:00.913Z,94.20
2023-02-03T06:42:03.056Z,94.20
2023-02-03T06:45:05.780Z,94.30
2023-02-03T06:48:09.836Z,94.30
2023-02-03T06:51:12.074Z,94.40
2023-02-03T06:54:14.800Z,94.40
2023-02-03T06:57:16.849Z,94.50
2023-02-03T07:00:19.658Z,94.50
2023-02-03T07:03:21.676Z,94.70
2023-02-03T07:06:24.359Z,94.90
2023-02-03T07:09:26.380Z,95.00
2023-02-03T07:12:29.090Z,95.10
2023-02-03T07:15:31.339Z,95.10
2023-02-03T07:18:46.812Z,95.20
2023-02-03T07:21:50.285Z,95.30
2023-02-03T07:24:52.336Z,95.40
2023-02-03T07:27:54.847Z,95.40
2023-02-03T07:30:57.328Z,95.50
2023-02-03T07:34:01.187Z,95.60
2023-02-03T07:37:03.336Z,95.60
2023-02-03T07:40:05.762Z,95.90
2023-02-03T07:43:08.063Z,95.90
2023-02-03T07:46:10.149Z,95.90
2023-02-03T07:49:12.553Z,96.00
2023-02-03T07:52:14.594Z,96.00
2023-02-03T07:55:16.940Z,96.00
2023-02-03T07:58:19.036Z,96.00
2023-02-03T08:01:21.101Z,96.00
2023-02-03T08:04:24.450Z,96.30
2023-02-03T08:07:26.516Z,95.40
2023-02-03T08:10:28.858Z,93.20
2023-02-03T08:13:31.430Z,91.70
2023-02-03T08:16:33.537Z,89.30
2023-02-03T08:19:35.623Z,87.10
2023-02-03T08:22:37.704Z,82.50
2023-02-03T08:25:39.781Z,79.80
2023-02-03T08:28:42.138Z,74.60
2023-02-03T08:31:44.559Z,72.40
2023-02-03T08:34:46.772Z,69.40
2023-02-03T08:37:48.779Z,66.80
2023-02-03T08:40:50.876Z,64.70
2023-02-03T08:43:54.207Z,63.90
2023-02-03T08:46:56.231Z,64.30
2023-02-03T08:49:58.394Z,59.30
2023-02-03T08:53:00.479Z,58.00
2023-02-03T08:56:09.586Z,55.60
2023-02-03T08:59:12.302Z,54.90
2023-02-03T09:02:20.084Z,53.80
2023-02-03T09:05:22.465Z,51.90
2023-02-03T09:08:24.656Z,52.20
2023-02-03T09:11:27.113Z,50.90
2023-02-03T09:14:30.136Z,47.90
2023-02-03T09:17:32.179Z,48.60
2023-02-03T09:20:34.306Z,47.30
2023-02-03T09:23:36.611Z,46.00
2023-02-03T09:26:38.661Z,45.20
2023-02-03T09:29:40.870Z,42.30
2023-02-03T09:32:42.947Z,42.00
2023-02-03T09:35:53.429Z,41.50
2023-02-03T09:38:57.114Z,39.10
2023-02-03T09:42:17.244Z,39.10
2023-02-03T09:45:28.217Z,37.20
2023-02-03T09:48:37.679Z,36.10
2023-02-03T09:51:46.470Z,35.50
2023-02-03T09:55:07.151Z,35.40
2023-02-03T09:58:21.721Z,34.90
2023-02-03T10:01:29.548Z,32.40
2023-02-03T10:04:40.606Z,33.10
2023-02-03T10:07:57.615Z,31.80
2023-02-03T10:11:37.379Z,32.70
2023-02-03T10:15:00.682Z,31.90
2023-02-03T10:18:19.992Z,32.30
2023-02-03T10:21:32.546Z,33.10
2023-02-03T10:25:04.113Z,32.70
2023-02-03T10:28:16.230Z,32.40
2023-02-03T10:31:23.362Z,30.00
2023-02-03T10:34:25.942Z,31.20
2023-02-03T10:37:37.654Z,31.70
2023-02-03T10:40:40.010Z,31.80
2023-02-03T10:43:47.997Z,29.70
2023-02-03T10:46:50.074Z,30.30
2023-02-03T10:49:54.419Z,31.30
2023-02-03T10:53:22.536Z,31.30
2023-02-03T10:56:26.924Z,31.90
2023-02-03T10:59:32.274Z,31.30
2023-02-03T11:02:34.935Z,31.20
2023-02-03T11:05:38.566Z,30.50
2023-02-03T11:08:46.641Z,29.70
2023-02-03T11:11:48.655Z,29.50
2023-02-03T11:14:52.656Z,29.80
2023-02-03T11:17:54.683Z,31.50
2023-02-03T11:20:58.483Z,31.30
2023-02-03T11:24:11.186Z,31.00
2023-02-03T11:27:18.142Z,32.20
2023-02-03T11:30:30.465Z,30.00
2023-02-03T11:33:32.821Z,29.80
2023-02-03T11:36:35.927Z,29.60
2023-02-03T11:39:39.230Z,32.70
2023-02-03T11:42:44.103Z,33.60
2023-02-03T11:45:49.549Z,33.10
2023-02-03T11:48:51.519Z,33.70
2023-02-03T11:52:25.339Z,33.00
2023-02-03T11:55:33.033Z,32.40
2023-02-03T11:58:50.172Z,33.70
2023-02-03T12:02:27.802Z,34.30
2023-02-03T12:05:48.628Z,36.70
2023-02-03T12:09:17.951Z,40.30
2023-02-03T12:12:38.989Z,41.90
2023-02-03T12:15:53.003Z,45.50
2023-02-03T12:19:24.722Z,48.40
2023-02-03T12:22:37.978Z,49.80
2023-02-03T12:25:58.023Z,52.70
2023-02-03T12:29:06.379Z,55.20
2023-02-03T12:32:25.356Z,56.40
2023-02-03T12:35:33.944Z,58.10
2023-02-03T12:38:52.207Z,58.60
2023-02-03T12:42:32.476Z,60.80
2023-02-03T12:45:39.889Z,60.60
2023-02-03T12:49:05.534Z,61.40
2023-02-03T12:52:14.443Z,60.60
2023-02-03T12:55:33.346Z,60.20
2023-02-03T12:58:40.285Z,61.20
2023-02-03T13:01:51.865Z,62.00
2023-02-03T13:05:08.386Z,61.70
2023-02-03T13:08:28.551Z,61.00
2023-02-03T13:11:52.484Z,61.90
2023-02-03T13:15:25.546Z,62.00
2023-02-03T13:18:28.320Z,61.90
2023-02-03T13:21:30.341Z,62.30
2023-02-03T13:24:32.662Z,62.00
2023-02-03T13:27:48.570Z,62.40
2023-02-03T13:31:03.618Z,61.60
2023-02-03T13:34:31.065Z,62.20
2023-02-03T13:37:59.774Z,60.90
2023-02-03T13:41:19.665Z,59.90
2023-02-03T13:44:28.646Z,59.80
2023-02-03T13:47:32.256Z,59.50
2023-02-03T13:50:38.718Z,60.20
2023-02-03T13:53:43.938Z,59.90
2023-02-03T13:57:02.482Z,60.10
2023-02-03T14:00:26.543Z,59.30
2023-02-03T14:03:28.639Z,59.20
2023-02-03T14:06:36.681Z,59.40
2023-02-03T14:09:39.833Z,59.70
2023-02-03T14:12:51.054Z,60.10
2023-02-03T14:16:25.750Z,59.80
2023-02-03T14:19:31.433Z,60.10
2023-02-03T14:22:33.650Z,58.80
2023-02-03T14:25:59.149Z,58.40
2023-02-03T14:29:03.272Z,58.10
2023-02-03T14:32:15.306Z,57.60
2023-02-03T14:35:24.548Z,56.50
2023-02-03T14:38:33.328Z,56.50
2023-02-03T14:41:54.205Z,56.30
2023-02-03T14:45:50.545Z,56.20
2023-02-03T14:49:34.242Z,55.60
2023-02-03T14:52:42.454Z,56.20
2023-02-03T14:55:59.230Z,56.50
2023-02-03T14:59:04.914Z,55.90
2023-02-03T15:02:08.078Z,55.30
2023-02-03T15:05:13.364Z,54.50
2023-02-03T15:08:45.162Z,55.20
2023-02-03T15:11:47.981Z,55.70
2023-02-03T15:14:50.112Z,54.80
2023-02-03T15:17:54.872Z,54.00
2023-02-03T15:20:58.723Z,54.70
2023-02-03T15:24:00.703Z,54.10
2023-02-03T15:27:02.931Z,52.20
2023-02-03T15:30:25.523Z,52.90
2023-02-03T15:33:31.794Z,53.10
2023-02-03T15:36:48.479Z,53.90
2023-02-03T15:40:05.099Z,51.40
2023-02-03T15:43:25.290Z,52.70
2023-02-03T15:46:33.835Z,52.00
2023-02-03T15:49:41.920Z,52.20
2023-02-03T15:52:45.317Z,52.50
2023-02-03T15:55:58.965Z,52.20
2023-02-03T15:59:01.251Z,52.80
2023-02-03T16:02:21.436Z,53.20
2023-02-03T16:05:39.437Z,52.00
2023-02-03T16:08:46.519Z,51.30
2023-02-03T16:11:48.924Z,50.30
2023-02-03T16:14:52.417Z,50.70
2023-02-03T16:17:58.085Z,50.90
2023-02-03T16:21:00.155Z,51.10
2023-02-03T16:24:06.823Z,50.70
2023-02-03T16:27:25.529Z,50.90
2023-02-03T16:30:46.247Z,50.80
2023-02-03T16:34:09.593Z,50.80
2023-02-03T16:37:31.988Z,50.90
2023-02-03T16:40:52.669Z,51.50
2023-02-03T16:44:13.170Z,52.00
2023-02-03T16:47:46.758Z,51.70
2023-02-03T16:50:58.255Z,52.10
2023-02-03T16:54:01.072Z,52.40
2023-02-03T16:57:03.226Z,52.30
2023-02-03T17:00:06.213Z,52.60
2023-02-03T17:03:11.302Z,53.10
2023-02-03T17:06:15.050Z,53.20
2023-02-03T17:09:22.206Z,54.00
2023-02-03T17:12:25.814Z,53.90
2023-02-03T17:15:28.356Z,53.90
2023-02-03T17:18:30.964Z,54.30
2023-02-03T17:21:33.230Z,54.80
2023-02-03T17:24:35.909Z,55.60
2023-02-03T17:27:38.027Z,56.20
2023-02-03T17:30:40.461Z,56.50
2023-02-03T17:33:43.346Z,56.90
2023-02-03T17:36:45.394Z,56.80
2023-02-03T17:56:19.635Z,60.10
2023-02-03T17:59:21.898Z,60.60
2023-02-03T18:02:23.994Z,61.20
2023-02-03T18:05:26.234Z,61.10
2023-02-03T18:08:28.193Z,61.60
2023-02-03T18:11:32.060Z,62.10
2023-02-03T18:14:34.525Z,62.30
2023-02-03T18:17:37.859Z,62.60
2023-02-03T18:20:40.101Z,62.60
2023-02-03T18:23:42.642Z,62.70
2023-02-03T18:26:50.595Z,63.50
2023-02-03T18:29:52.740Z,63.90
2023-02-03T18:32:55.695Z,63.50
2023-02-03T18:35:59.005Z,63.60
2023-02-03T18:39:01.145Z,63.60
2023-02-03T18:42:04.227Z,63.60
2023-02-03T18:45:07.104Z,63.60
2023-02-03T18:48:09.180Z,64.70
2023-02-03T18:51:13.513Z,65.10
2023-02-03T18:54:15.489Z,65.10
2023-02-03T18:57:17.774Z,65.70
2023-02-03T19:00:20.277Z,65.90
2023-02-03T19:03:24.987Z,66.60
2023-02-03T19:06:30.523Z,66.20
2023-02-03T19:09:34.126Z,67.10
2023-02-03T19:12:36.239Z,67.60
2023-02-03T19:15:38.385Z,67.80
2023-02-03T19:18:40.855Z,68.20
2023-02-03T19:21:44.522Z,68.50
2023-02-03T19:24:46.864Z,69.70
2023-02-03T19:27:49.140Z,69.70
2023-02-03T19:30:57.351Z,72.10
2023-02-03T19:34:02.065Z,73.40
2023-02-03T19:37:04.330Z,73.90
2023-02-03T19:40:07.002Z,75.70
2023-02-03T19:43:09.045Z,74.70
2023-02-03T19:46:13.834Z,75.70
2023-02-03T19:49:15.706Z,76.50
2023-02-03T19:52:17.805Z,77.80
2023-02-03T19:55:19.881Z,77.30
2023-02-03T19:58:24.166Z,77.90
2023-02-03T20:01:27.121Z,78.40
2023-02-03T20:04:29.311Z,77.80
2023-02-03T20:07:32.898Z,79.80
2023-02-03T20:10:35.033Z,79.60
2023-02-03T20:13:37.382Z,78.60
2023-02-03T20:16:39.506Z,78.40
2023-02-03T20:19:41.758Z,79.80
2023-02-03T20:22:43.840Z,79.40
2023-02-03T20:25:50.310Z,78.90
2023-02-03T20:28:52.431Z,78.70
2023-02-03T20:31:55.048Z,78.80
2023-02-03T20:34:57.821Z,78.00
2023-02-03T20:38:00.060Z,78.80
2023-02-03T20:41:02.968Z,77.90
2023-02-03T20:44:10.255Z,77.60
2023-02-03T20:47:23.457Z,77.20
2023-02-03T20:50:34.440Z,77.30
2023-02-03T20:53:44.454Z,77.10
2023-02-03T20:56:46.568Z,76.70
2023-02-03T20:59:48.591Z,77.20
2023-02-03T21:03:09.880Z,77.00
2023-02-03T21:06:17.347Z,76.30
2023-02-03T21:09:21.357Z,76.10
2023-02-03T21:12:23.640Z,75.80
2023-02-03T21:15:29.227Z,75.70
2023-02-03T21:18:49.257Z,75.70
2023-02-03T21:21:53.992Z,76.20
2023-02-03T21:25:00.088Z,75.50
2023-02-03T21:28:02.264Z,75.30
2023-02-03T21:31:16.077Z,75.70
2023-02-03T21:34:32.569Z,75.30
2023-02-03T21:37:40.621Z,75.20
2023-02-03T21:40:43.827Z,74.90
2023-02-03T21:43:50.119Z,74.80
2023-02-03T21:46:52.241Z,74.60
2023-02-03T21:49:54.267Z,74.40
2023-02-03T21:52:56.723Z,74.30
2023-02-03T21:56:36.799Z,74.10
2023-02-03T21:59:43.336Z,74.20
2023-02-03T22:03:00.797Z,74.00
2023-02-03T22:06:16.015Z,74.20
2023-02-03T22:09:19.001Z,74.70
2023-02-03T22:12:21.019Z,75.20
2023-02-03T22:15:22.986Z,75.40
2023-02-03T22:18:26.226Z,75.70
2023-02-03T22:21:28.559Z,75.00
2023-02-03T22:24:30.605Z,75.10
2023-02-03T22:27:32.811Z,74.80
2023-02-03T22:30:35.002Z,74.70
2023-02-03T22:33:37.953Z,75.20
2023-02-03T22:36:40.590Z,75.20
2023-02-03T22:39:42.637Z,75.60
2023-02-03T22:42:45.249Z,76.80
2023-02-03T22:45:47.528Z,76.50
2023-02-03T22:48:49.617Z,76.20
2023-02-03T22:51:51.701Z,76.70
2023-02-03T22:54:53.741Z,76.90
2023-02-03T22:57:56.621Z,77.00
2023-02-03T23:00:58.739Z,76.70
2023-02-03T23:04:00.871Z,76.70
2023-02-03T23:07:02.913Z,76.50
2023-02-03T23:10:06.638Z,76.70
2023-02-03T23:13:08.743Z,76.70
2023-02-03T23:16:10.961Z,76.10
2023-02-03T23:19:13.073Z,76.00
2023-02-03T23:22:16.036Z,76.30
2023-02-03T23:25:18.167Z,76.20
2023-02-03T23:28:20.539Z,76.20
2023-02-03T23:31:22.841Z,76.40
2023-02-03T23:34:43.609Z,76.50
2023-02-03T23:37:45.982Z,76.50
2023-02-03T23:40:48.021Z,76.50
2023-02-03T23:43:51.430Z,76.50
2023-02-03T23:46:53.472Z,76.50
2023-02-03T23:49:55.664Z,76.50
2023-02-03T23:52:58.868Z,76.70
2023-02-03T23:56:01.387Z,76.80
2023-02-03T23:59:03.584Z,76.50
